Weather at Auburn Municipal Airport

Public forecast

Using degrees Fahrenheit for public forecast. Weather courtesy of forecast.io.

Current aviation weather report (METAR) for Auburn Municipal Airport

Retrieved 2020/10/19 14:35 UTC (8 minutes ago):

KAUN 191435Z AUTO 09009KT 10SM CLR 19/03 A3002 RMK A01

Closest aviation forecast (TAF) to Auburn Municipal Airport

Forecast is more than 12 hours old.

Closest forecast is Beale Air Force Base, 19.8 nm (36.7 km) WNW. Retrieved 2020/10/16 19:06 UTC (3 days ago):

TAF TAF KBAB 161900Z 1619/1801 31009KT 9999 SKC QNH2988INS BECMG 1703/1704 05006KT 9999 SKC QNH2988INS BECMG 1718/1719 26008KT 9999 SKC QNH2989INS TX32/1623Z TN12/1713Z